Time;durP1;ratioP1;P1;durP2;ratioP2;P2;SDS_P1;SDS_P2;PMS_P1;PMS_P2;Temp;Humidity;BMP_temperature;BMP_pressure;BME280_temperature;BME280_humidity;BME280_pressure;Samples;Min_cycle;Max_cycle;Signal;HPM_P1;HPM_P2
2023/02/13 00:01:25;;;;;;;5.50;2.20;;;;;;;-1.93;55.15;101578.27;105650;1256;60469;-73
2023/02/13 00:03:58;;;;;;;;;;;;;;;-1.94;55.26;101576.89;105740;1255;60816;-73
2023/02/13 00:06:27;;;;;;;4.10;1.90;;;;;;;-1.96;55.25;101571.20;105644;1255;66455;-73
2023/02/13 00:08:55;;;;;;;6.20;2.30;;;;;;;-1.98;55.23;101568.31;106189;1259;60443;-74
2023/02/13 00:11:28;;;;;;;4.70;1.80;;;;;;;-1.99;55.18;101564.86;105693;1259;65538;-71
2023/02/13 00:13:57;;;;;;;4.30;1.90;;;;;;;-1.99;55.08;101568.32;106058;1256;62028;-71
2023/02/13 00:16:25;;;;;;;5.30;2.30;;;;;;;-2.01;55.10;101570.06;105781;1257;60472;-72
2023/02/13 00:19:01;;;;;;;4.70;2.20;;;;;;;-2.01;55.07;101568.52;105499;1257;66474;-73
2023/02/13 00:21:34;;;;;;;4.60;2.10;;;;;;;-2.02;55.07;101569.91;105484;1256;60606;-73
2023/02/13 00:24:05;;;;;;;3.50;1.80;;;;;;;-2.06;54.99;101569.23;105587;1256;65097;-72
2023/02/13 00:26:33;;;;;;;4.20;1.80;;;;;;;-2.10;55.08;101571.02;105749;1257;60431;-72
2023/02/13 00:29:02;;;;;;;3.70;1.50;;;;;;;-2.13;55.04;101568.77;105719;1262;60486;-73
2023/02/13 00:31:31;;;;;;;4.50;1.90;;;;;;;-2.14;55.06;101564.80;105844;1261;66946;-71
2023/02/13 00:34:00;;;;;;;5.50;2.10;;;;;;;-2.16;55.13;101560.86;105739;1257;60461;-72
2023/02/13 00:36:28;;;;;;;4.80;2.00;;;;;;;-2.17;55.06;101559.48;105721;1257;64546;-73
2023/02/13 00:38:57;;;;;;;5.40;2.30;;;;;;;-2.18;55.07;101560.02;105315;1266;60370;-73
2023/02/13 00:41:25;;;;;;;5.00;1.90;;;;;;;-2.20;55.11;101556.24;105489;1259;60438;-74
2023/02/13 00:43:53;;;;;;;6.00;2.30;;;;;;;-2.23;55.09;101557.46;105607;1262;66711;-72
2023/02/13 00:46:23;;;;;;;4.50;2.00;;;;;;;-2.26;55.22;101553.86;105505;1262;60480;-72
2023/02/13 00:48:53;;;;;;;5.10;2.00;;;;;;;-2.29;55.26;101556.15;106051;1257;65018;-76
2023/02/13 00:51:22;;;;;;;5.40;2.00;;;;;;;-2.33;55.27;101557.89;105523;1256;60531;-73
2023/02/13 00:53:51;;;;;;;4.80;1.90;;;;;;;-2.35;55.36;101554.45;105631;1256;60474;-73
2023/02/13 00:56:19;;;;;;;6.10;2.30;;;;;;;-2.36;55.36;101551.88;105682;1259;66656;-73
2023/02/13 00:58:51;;;;;;;5.90;2.60;;;;;;;-2.38;55.31;101549.83;105842;1256;60461;-73
2023/02/13 01:01:19;;;;;;;4.90;2.30;;;;;;;-2.41;55.40;101550.55;105644;1256;64057;-73
2023/02/13 01:03:47;;;;;;;5.40;2.10;;;;;;;-2.42;55.41;101553.82;105500;1259;60422;-73
2023/02/13 01:06:16;;;;;;;4.30;2.10;;;;;;;-2.46;55.46;101556.27;105859;1256;60547;-73
2023/02/13 01:08:45;;;;;;;4.70;3.00;;;;;;;-2.50;55.47;101557.67;105794;1258;66721;-73
2023/02/13 01:11:13;;;;;;;5.20;2.40;;;;;;;-2.53;55.54;101556.14;105539;1257;60805;-74
2023/02/13 01:13:44;;;;;;;3.50;2.10;;;;;;;-2.57;55.42;101551.69;105745;1259;65543;-74
2023/02/13 01:16:16;;;;;;;5.10;2.10;;;;;;;-2.61;55.44;101553.78;106006;1256;60460;-74
2023/02/13 01:18:45;;;;;;;5.70;2.50;;;;;;;-2.66;55.47;101555.02;107074;1256;60440;-72
2023/02/13 01:21:18;;;;;;;4.10;2.40;;;;;;;-2.71;55.67;101549.00;107240;1255;224706;-73
2023/02/13 01:23:48;;;;;;;8.40;2.70;;;;;;;-2.76;55.57;101546.29;105907;1259;60461;-74
2023/02/13 01:26:23;;;;;;;5.00;2.60;;;;;;;-2.81;55.55;101546.83;105816;1256;64598;-73
2023/02/13 01:28:53;;;;;;;5.50;2.40;;;;;;;-2.86;55.64;101548.94;105827;1256;60555;-75
2023/02/13 01:31:21;;;;;;;6.30;2.70;;;;;;;-2.91;55.75;101550.34;106067;1259;60453;-73
2023/02/13 01:33:50;;;;;;;5.80;2.80;;;;;;;-2.94;56.00;101552.59;105662;1257;65891;-72
2023/02/13 01:36:24;;;;;;;6.90;3.00;;;;;;;-2.96;56.08;101555.36;105671;1255;60460;-73
2023/02/13 01:38:55;;;;;;;6.60;3.00;;;;;;;-2.96;56.14;101562.43;105384;1256;65526;-73
2023/02/13 01:41:24;;;;;;;7.70;3.70;;;;;;;-3.00;56.15;101562.95;105685;1257;60489;-73
2023/02/13 01:43:59;;;;;;;6.40;3.50;;;;;;;-3.04;56.25;101558.84;105492;1256;60514;-73
2023/02/13 01:46:37;;;;;;;10.00;3.70;;;;;;;-3.05;56.39;101555.92;105458;1262;66764;-75
2023/02/13 01:49:14;;;;;;;6.80;3.40;;;;;;;-3.06;56.44;101557.82;106099;1256;60515;-73
2023/02/13 01:51:43;;;;;;;6.10;3.30;;;;;;;-3.08;56.50;101556.45;105588;1262;65266;-73
2023/02/13 01:54:14;;;;;;;7.80;3.60;;;;;;;-3.10;56.63;101551.80;105698;1256;60403;-74
2023/02/13 01:56:50;;;;;;;6.40;3.50;;;;;;;-3.13;56.67;101551.64;105515;1259;60527;-74
2023/02/13 01:59:28;;;;;;;7.60;3.60;;;;;;;-3.14;56.77;101551.31;105327;1262;66700;-74
2023/02/13 02:01:57;;;;;;;6.50;3.70;;;;;;;-3.16;56.89;101556.15;105352;1262;60495;-74
2023/02/13 02:04:28;;;;;;;8.50;3.30;;;;;;;-3.19;56.96;101558.57;105356;1256;65612;-74
2023/02/13 02:07:01;;;;;;;6.80;3.40;;;;;;;-3.21;56.98;101555.46;105569;1257;60542;-74
2023/02/13 02:09:38;;;;;;;7.80;4.00;;;;;;;-3.24;57.04;101553.92;105451;1256;60425;-74
2023/02/13 02:12:18;;;;;;;7.00;3.80;;;;;;;-3.26;57.10;101551.88;105380;1262;66870;-73
2023/02/13 02:14:51;;;;;;;8.00;4.00;;;;;;;-3.26;57.17;101553.95;105590;1256;60428;-74
2023/02/13 02:17:21;;;;;;;7.30;4.00;;;;;;;-3.28;57.25;101558.08;105416;1256;64764;-74
2023/02/13 02:20:02;;;;;;;8.40;3.90;;;;;;;-3.28;57.23;101556.35;105687;1256;60551;-74
2023/02/13 02:22:50;;;;;;;6.50;4.30;;;;;;;-3.29;57.26;101553.25;105611;1262;60516;-74
2023/02/13 02:25:46;;;;;;;10.80;4.60;;;;;;;-3.33;57.32;101555.35;105771;1256;67018;-73
2023/02/13 02:28:48;;;;;;;9.20;3.60;;;;;;;-3.36;57.42;101554.33;105275;1261;60501;-73
2023/02/13 02:32:00;;;;;;;9.00;3.80;;;;;;;-3.37;57.52;101552.78;105728;1256;64945;-73
2023/02/13 02:34:50;;;;;;;6.20;3.20;;;;;;;-3.37;57.58;101552.77;105653;1257;61757;-74
2023/02/13 02:37:37;;;;;;;8.20;3.70;;;;;;;-3.37;57.63;101552.45;105453;1256;60741;-74
2023/02/13 02:40:29;;;;;;;9.10;3.70;;;;;;;-3.36;57.67;101547.45;105484;1259;66745;-73
2023/02/13 02:43:06;;;;;;;7.20;3.10;;;;;;;-3.37;57.76;101545.73;105651;1259;60523;-73
2023/02/13 02:45:57;;;;;;;6.60;3.60;;;;;;;-3.35;57.69;101548.81;105412;1262;65251;-74
2023/02/13 02:52:11;;;;;;;6.30;3.10;;;;;;;-3.33;57.74;101544.84;105390;1257;60425;-73
2023/02/13 02:55:06;;;;;;;6.40;3.00;;;;;;;-3.33;57.82;101538.98;105652;1256;66672;-74
2023/02/13 03:06:45;;;;;;;7.60;3.40;;;;;;;-3.38;57.89;101535.54;105375;1265;60719;-73
2023/02/13 03:14:54;;;;;;;6.20;3.20;;;;;;;-3.43;57.95;101528.69;105412;1257;65608;-74
2023/02/13 03:23:51;;;;;;;7.10;3.30;;;;;;;-3.52;58.22;101520.97;105164;1265;66488;-73
2023/02/13 03:26:19;;;;;;;5.80;3.30;;;;;;;-3.53;58.34;101517.19;105281;1263;60547;-74
2023/02/13 03:32:17;;;;;;;5.60;3.10;;;;;;;-3.53;58.54;101510.81;105637;1256;60335;-73
2023/02/13 03:37:53;;;;;;;5.10;2.90;;;;;;;-3.53;58.65;101511.33;105497;1256;65736;-73
2023/02/13 03:40:29;;;;;;;4.90;3.00;;;;;;;-3.52;58.63;101511.33;105683;1259;60452;-73
2023/02/13 03:43:01;;;;;;;5.20;3.10;;;;;;;-3.52;58.77;101512.02;105494;1256;65560;-74
2023/02/13 03:51:23;;;;;;;5.80;3.10;;;;;;;-3.52;58.96;101500.99;105609;1256;66019;-73
2023/02/13 03:53:54;;;;;;;5.80;2.60;;;;;;;-3.53;59.02;101497.22;105652;1262;60562;-73
2023/02/13 03:59:17;;;;;;;6.10;2.80;;;;;;;-3.53;59.23;101498.08;105666;1261;60544;-73
2023/02/13 04:02:07;;;;;;;5.40;2.40;;;;;;;-3.53;59.26;101498.08;105691;1257;60410;-73
2023/02/13 04:04:40;;;;;;;6.30;2.90;;;;;;;-3.52;59.30;101495.66;105335;1265;65931;-73
2023/02/13 04:07:11;;;;;;;6.20;2.50;;;;;;;-3.54;59.38;101499.98;105760;1256;60461;-74
2023/02/13 04:09:40;;;;;;;7.40;2.70;;;;;;;-3.55;59.47;101496.54;105682;1259;65383;-74
2023/02/13 04:12:19;;;;;;;5.50;2.90;;;;;;;-3.54;59.51;101489.81;105543;1257;60431;-73
2023/02/13 04:14:50;;;;;;;5.80;3.20;;;;;;;-3.52;59.53;101489.98;105282;1257;60543;-74
2023/02/13 04:17:29;;;;;;;6.40;2.80;;;;;;;-3.51;59.55;101491.01;105546;1257;66712;-74
2023/02/13 04:19:58;;;;;;;5.90;2.40;;;;;;;-3.50;59.51;101490.66;105452;1261;60519;-73
2023/02/13 04:22:26;;;;;;;6.00;2.80;;;;;;;-3.51;59.53;101492.21;105639;1262;63700;-73
2023/02/13 04:24:55;;;;;;;9.10;3.70;;;;;;;-3.50;59.48;101484.11;105644;1257;60384;-73
2023/02/13 04:27:24;;;;;;;8.10;3.70;;;;;;;-3.51;59.54;101479.30;105411;1257;60461;-73
2023/02/13 04:29:53;;;;;;;6.10;3.10;;;;;;;-3.53;59.54;101474.14;105660;1259;66753;-73
2023/02/13 04:32:21;;;;;;;4.60;2.60;;;;;;;-3.54;59.54;101470.54;105658;1259;60360;-73
2023/02/13 04:34:49;;;;;;;5.80;2.80;;;;;;;-3.55;59.54;101469.52;105453;1259;64347;-73
2023/02/13 04:37:20;;;;;;;5.30;2.50;;;;;;;-3.58;59.55;101464.86;105431;1256;60456;-73
2023/02/13 04:39:48;;;;;;;7.10;2.60;;;;;;;-3.59;59.68;101465.38;105673;1257;60466;-73
2023/02/13 04:42:17;;;;;;;6.80;2.40;;;;;;;-3.59;59.69;101466.24;105781;1259;66634;-75
2023/02/13 04:44:45;;;;;;;5.40;2.30;;;;;;;-3.60;59.73;101469.69;105567;1259;60454;-72
2023/02/13 04:47:13;;;;;;;3.90;2.50;;;;;;;-3.60;59.82;101470.20;105556;1260;65572;-72
2023/02/13 04:49:42;;;;;;;5.90;2.40;;;;;;;-3.61;59.81;101469.70;105612;1256;61062;-72
2023/02/13 04:52:14;;;;;;;4.50;2.30;;;;;;;-3.61;59.78;101474.17;105535;1259;60514;-72
2023/02/13 04:54:42;;;;;;;4.00;2.40;;;;;;;-3.60;59.89;101475.89;105393;1262;65686;-72
2023/02/13 04:57:11;;;;;;;4.70;2.60;;;;;;;-3.59;60.04;101480.02;105614;1259;60562;-72
2023/02/13 04:59:40;;;;;;;5.50;2.50;;;;;;;-3.56;60.15;101480.01;105545;1256;65559;-72
2023/02/13 05:02:08;;;;;;;8.80;2.80;;;;;;;-3.53;60.25;101482.07;105521;1257;60464;-72
2023/02/13 05:04:36;;;;;;;4.60;2.80;;;;;;;-3.51;60.41;101477.91;105683;1258;60771;-72
2023/02/13 05:07:05;;;;;;;5.50;2.70;;;;;;;-3.48;60.44;101475.14;105620;1260;66774;-73
2023/02/13 05:09:33;;;;;;;5.20;2.60;;;;;;;-3.47;60.50;101479.98;106229;1257;60485;-73
2023/02/13 05:12:02;;;;;;;7.70;3.00;;;;;;;-3.45;60.66;101483.24;105735;1257;65656;-73
2023/02/13 05:14:31;;;;;;;5.90;2.90;;;;;;;-3.42;60.76;101481.33;105627;1259;60460;-74
2023/02/13 05:16:59;;;;;;;6.00;3.20;;;;;;;-3.41;60.76;101484.42;105856;1256;60452;-73
2023/02/13 05:19:30;;;;;;;7.40;3.00;;;;;;;-3.39;60.85;101480.09;106172;1260;66710;-72
2023/02/13 05:24:45;;;;;;;7.80;3.60;;;;;;;-3.35;60.94;101485.10;107166;1260;64255;-73
2023/02/13 05:27:13;;;;;;;11.80;5.40;;;;;;;-3.36;61.01;101491.81;105955;1259;60358;-71
2023/02/13 05:29:41;;;;;;;14.20;6.50;;;;;;;-3.35;61.09;101493.88;106062;1261;60464;-73
2023/02/13 05:32:10;;;;;;;18.80;8.60;;;;;;;-3.33;61.10;101499.03;105527;1261;66742;-73
2023/02/13 05:34:38;;;;;;;18.40;7.90;;;;;;;-3.32;61.20;101499.70;105594;1259;60438;-73
2023/02/13 05:37:06;;;;;;;22.90;9.20;;;;;;;-3.31;61.19;101504.69;105526;1256;65301;-73
2023/02/13 05:39:35;;;;;;;19.10;7.40;;;;;;;-3.30;61.28;101502.61;105578;1258;60405;-73
2023/02/13 05:42:03;;;;;;;12.40;5.80;;;;;;;-3.28;61.33;101502.80;105640;1257;60460;-72
2023/02/13 05:44:31;;;;;;;12.20;4.90;;;;;;;-3.24;61.36;101501.40;105436;1257;67053;-74
2023/02/13 05:47:00;;;;;;;10.40;4.70;;;;;;;-3.22;61.46;101501.89;105418;1259;60320;-75
2023/02/13 05:49:33;;;;;;;13.70;6.50;;;;;;;-3.18;61.61;101501.55;105510;1256;64615;-75
2023/02/13 05:52:03;;;;;;;12.20;6.50;;;;;;;-3.14;61.65;101497.90;105567;1257;60546;-75
2023/02/13 05:54:32;;;;;;;9.40;5.00;;;;;;;-3.10;61.75;101492.53;105624;1259;60296;-76
2023/02/13 05:57:00;;;;;;;10.10;3.80;;;;;;;-3.07;61.78;101486.50;105542;1259;66728;-74
2023/02/13 05:59:29;;;;;;;7.20;3.50;;;;;;;-3.04;61.93;101478.04;105507;1258;60542;-75
2023/02/13 06:01:58;;;;;;;6.60;3.50;;;;;;;-3.02;61.97;101472.85;105627;1257;65694;-76
2023/02/13 06:04:26;;;;;;;6.70;3.30;;;;;;;-3.00;62.05;101467.83;105620;1259;60443;-76
2023/02/13 06:06:55;;;;;;;8.60;3.50;;;;;;;-2.97;62.09;101460.77;105520;1254;60424;-76
2023/02/13 06:09:23;;;;;;;7.50;3.80;;;;;;;-2.95;62.13;101459.37;105867;1260;66524;-76
2023/02/13 06:11:52;;;;;;;8.90;3.60;;;;;;;-2.91;62.22;101463.83;105637;1263;60527;-75
2023/02/13 06:14:20;;;;;;;9.30;3.70;;;;;;;-2.87;62.26;101463.11;105559;1260;65587;-76
2023/02/13 06:16:48;;;;;;;7.00;3.50;;;;;;;-2.82;62.26;101459.79;105705;1260;60438;-75
2023/02/13 06:19:17;;;;;;;9.30;3.90;;;;;;;-2.79;62.31;101456.67;105509;1257;60460;-75
2023/02/13 06:21:45;;;;;;;7.50;3.30;;;;;;;-2.73;62.30;101456.79;105650;1258;66773;-74
2023/02/13 06:24:13;;;;;;;8.00;4.00;;;;;;;-2.68;62.28;101452.79;105549;1257;60466;-75
2023/02/13 06:26:41;;;;;;;11.30;5.30;;;;;;;-2.62;62.34;101451.71;105597;1257;65201;-75
2023/02/13 06:29:11;;;;;;;12.00;6.00;;;;;;;-2.57;62.27;101447.88;105720;1258;60458;-76
2023/02/13 06:31:39;;;;;;;14.80;6.50;;;;;;;-2.52;62.33;101445.94;105879;1262;60486;-75
2023/02/13 06:34:09;;;;;;;12.80;6.00;;;;;;;-2.45;62.35;101446.91;105596;1262;66553;-77
2023/02/13 06:36:37;;;;;;;15.40;6.50;;;;;;;-2.38;62.35;101444.43;105548;1257;60514;-76
2023/02/13 06:39:05;;;;;;;12.90;6.00;;;;;;;-2.28;62.35;101444.51;105604;1257;65607;-76
2023/02/13 06:41:34;;;;;;;15.70;6.50;;;;;;;-2.20;62.32;101439.27;105703;1259;60347;-75
2023/02/13 06:44:06;;;;;;;12.20;5.70;;;;;;;-2.13;62.22;101439.20;105597;1257;60473;-76
2023/02/13 06:46:34;;;;;;;16.40;7.10;;;;;;;-2.06;62.07;101439.98;105486;1260;67378;-76
2023/02/13 06:49:05;;;;;;;15.80;6.20;;;;;;;-1.98;62.13;101442.65;105594;1259;60501;-74
2023/02/13 06:51:34;;;;;;;21.00;7.40;;;;;;;-1.89;62.00;101436.33;105795;1260;64360;-75
2023/02/13 06:54:04;;;;;;;32.40;10.00;;;;;;;-1.78;61.89;101424.82;105479;1256;61077;-76
2023/02/13 06:56:33;;;;;;;16.00;6.40;;;;;;;-1.67;61.87;101418.13;105494;1254;60451;-76
2023/02/13 06:59:01;;;;;;;14.50;6.10;;;;;;;-1.53;61.72;101409.66;105514;1260;67007;-77
2023/02/13 07:01:31;;;;;;;6.70;3.50;;;;;;;-1.40;61.58;101408.45;105552;1259;60553;-76
2023/02/13 07:04:00;;;;;;;6.20;3.10;;;;;;;-1.32;61.25;101404.02;106110;1260;65289;-76
2023/02/13 07:06:28;;;;;;;6.30;3.00;;;;;;;-1.28;60.89;101398.08;105980;1259;60347;-76
2023/02/13 07:08:57;;;;;;;5.30;3.10;;;;;;;-1.25;60.81;101393.38;105661;1259;60572;-76
2023/02/13 07:11:27;;;;;;;6.30;3.40;;;;;;;-1.23;60.63;101391.63;105584;1261;66781;-77
2023/02/13 07:13:55;;;;;;;6.60;3.40;;;;;;;-1.21;60.48;101392.45;105691;1257;60486;-77
2023/02/13 07:16:25;;;;;;;10.20;3.80;;;;;;;-1.18;60.49;101394.48;105528;1260;65603;-76
2023/02/13 07:18:57;;;;;;;7.50;4.40;;;;;;;-1.13;60.48;101394.92;105642;1257;60575;-77
2023/02/13 07:21:25;;;;;;;8.10;3.80;;;;;;;-1.06;60.50;101391.71;105350;1257;60451;-76
2023/02/13 07:23:54;;;;;;;7.80;4.60;;;;;;;-0.97;60.41;101390.89;105645;1258;66707;-77
2023/02/13 07:26:22;;;;;;;12.50;4.40;;;;;;;-0.90;60.39;101389.73;105584;1258;60427;-77
2023/02/13 07:28:52;;;;;;;9.40;3.90;;;;;;;-0.81;60.33;101393.05;105556;1260;65594;-77
2023/02/13 07:31:38;;;;;;;7.50;3.70;;;;;;;-0.69;60.34;101395.79;105673;1254;60435;-77
2023/02/13 07:34:07;;;;;;;7.40;4.00;;;;;;;-0.58;59.99;101388.16;105661;1260;60487;-77
2023/02/13 07:36:35;;;;;;;9.00;3.90;;;;;;;-0.46;59.69;101381.19;105824;1259;66529;-77
2023/02/13 07:39:04;;;;;;;9.90;5.10;;;;;;;-0.33;59.57;101376.63;105653;1259;60422;-76
2023/02/13 07:41:33;;;;;;;16.60;7.30;;;;;;;-0.21;59.28;101364.98;105551;1261;65516;-76
2023/02/13 07:44:02;;;;;;;12.00;6.00;;;;;;;-0.13;58.99;101363.10;105430;1257;60480;-76
2023/02/13 07:46:31;;;;;;;14.70;8.10;;;;;;;-0.08;58.82;101367.16;105566;1255;60476;-76
2023/02/13 07:49:00;;;;;;;11.30;6.90;;;;;;;-0.06;58.57;101370.93;105558;1267;66469;-77
2023/02/13 07:51:28;;;;;;;8.90;5.40;;;;;;;-0.02;58.44;101366.35;105671;1258;60459;-73
2023/02/13 07:53:57;;;;;;;10.20;5.00;;;;;;;0.02;58.38;101364.02;105756;1258;65648;-76
2023/02/13 07:56:25;;;;;;;7.60;4.20;;;;;;;0.10;58.44;101364.03;105992;1260;60345;-76
2023/02/13 07:58:54;;;;;;;7.10;3.60;;;;;;;0.22;58.32;101362.92;105597;1257;60489;-76
2023/02/13 08:01:22;;;;;;;7.20;3.90;;;;;;;0.32;58.15;101359.92;105584;1260;65020;-77
2023/02/13 08:03:51;;;;;;;7.10;4.10;;;;;;;0.40;57.67;101359.41;105662;1260;66990;-77
2023/02/13 08:06:20;;;;;;;7.60;4.50;;;;;;;0.45;57.68;101357.90;105302;1260;65600;-76
2023/02/13 08:11:52;;;;;;;7.40;4.20;;;;;;;0.59;57.76;101358.30;105513;1260;60430;-77
2023/02/13 08:11:55;;;;;;;8.40;5.40;;;;;;;0.80;57.85;101361.62;105850;1255;60495;-77
2023/02/13 08:14:25;;;;;;;6.50;4.40;;;;;;;1.00;57.37;101360.09;105470;1258;66907;-77
2023/02/13 08:16:53;;;;;;;6.80;3.20;;;;;;;1.13;57.03;101352.84;105528;1259;60454;-78
2023/02/13 08:19:22;;;;;;;6.40;3.60;;;;;;;1.23;56.67;101350.86;105630;1256;65610;-77
2023/02/13 08:21:50;;;;;;;7.00;3.70;;;;;;;1.27;56.26;101351.64;105837;1257;60521;-76
2023/02/13 08:24:19;;;;;;;7.50;3.50;;;;;;;1.28;56.10;101346.42;105895;1257;60549;-77
2023/02/13 08:26:48;;;;;;;5.70;3.30;;;;;;;1.31;56.05;101346.48;105655;1258;66754;-77
2023/02/13 08:29:17;;;;;;;6.50;3.60;;;;;;;1.34;55.98;101339.82;105613;1258;60463;-77
2023/02/13 08:31:45;;;;;;;7.20;3.80;;;;;;;1.38;56.04;101337.45;105437;1258;65047;-76
2023/02/13 08:34:14;;;;;;;8.30;4.50;;;;;;;1.40;55.80;101334.47;105598;1259;60445;-76
2023/02/13 08:36:42;;;;;;;8.10;5.60;;;;;;;1.38;55.93;101334.87;105521;1255;60435;-76
2023/02/13 08:39:11;;;;;;;9.30;5.00;;;;;;;1.37;56.07;101341.50;105548;1257;66829;-77
2023/02/13 08:41:39;;;;;;;10.00;4.50;;;;;;;1.39;56.18;101338.99;105926;1259;60424;-76
2023/02/13 08:44:10;;;;;;;15.50;5.10;;;;;;;1.40;56.16;101336.02;105634;1257;64395;-75
2023/02/13 08:46:39;;;;;;;117.10;16.20;;;;;;;1.41;56.23;101332.16;105673;1258;60433;-76
2023/02/13 08:49:07;;;;;;;72.10;15.30;;;;;;;1.44;56.41;101336.42;105580;1258;60486;-75
2023/02/13 08:51:35;;;;;;;13.70;7.10;;;;;;;1.48;56.47;101332.86;105551;1260;66527;-75
2023/02/13 08:54:04;;;;;;;10.80;6.50;;;;;;;1.50;56.29;101327.27;105762;1257;60767;-75
2023/02/13 08:56:33;;;;;;;8.60;4.90;;;;;;;1.46;56.20;101323.03;105722;1261;64401;-75
2023/02/13 08:59:02;;;;;;;7.10;4.90;;;;;;;1.40;56.37;101323.18;105620;1258;60899;-74
2023/02/13 09:01:30;;;;;;;6.10;4.30;;;;;;;1.36;56.46;101324.15;105554;1257;60867;-75
2023/02/13 09:03:59;;;;;;;8.60;5.10;;;;;;;1.34;56.67;101318.65;105524;1259;66809;-77
2023/02/13 09:06:28;;;;;;;8.80;5.40;;;;;;;1.31;56.74;101314.55;105869;1260;60777;-77
2023/02/13 09:08:57;;;;;;;9.00;5.70;;;;;;;1.29;56.74;101307.34;105675;1256;65427;-76
2023/02/13 09:11:25;;;;;;;8.50;5.50;;;;;;;1.27;56.80;101300.98;105653;1261;60542;-75
2023/02/13 09:14:00;;;;;;;8.80;5.40;;;;;;;1.25;56.98;101298.08;105645;1257;60461;-75
2023/02/13 09:16:28;;;;;;;9.40;5.60;;;;;;;1.25;57.12;101295.30;105701;1260;66734;-78
2023/02/13 09:18:57;;;;;;;10.60;5.70;;;;;;;1.26;57.20;101294.05;106271;1260;60300;-74
2023/02/13 09:21:25;;;;;;;11.20;6.10;;;;;;;1.30;57.36;101287.87;108314;1256;64613;-76
2023/02/13 09:23:54;;;;;;;16.40;6.80;;;;;;;1.33;57.25;101286.23;107871;1260;59165;-76
2023/02/13 09:26:22;;;;;;;16.10;7.00;;;;;;;1.29;57.21;101280.98;105806;1254;60424;-76
2023/02/13 09:28:51;;;;;;;13.80;6.70;;;;;;;1.28;57.36;101282.39;105705;1259;66653;-78
2023/02/13 09:31:19;;;;;;;11.50;6.70;;;;;;;1.26;57.43;101278.27;106038;1259;60450;-76
2023/02/13 09:33:49;;;;;;;10.00;6.60;;;;;;;1.26;57.47;101270.65;105433;1258;64802;-77
2023/02/13 09:36:22;;;;;;;10.80;6.90;;;;;;;1.28;57.57;101263.47;106048;1254;60358;-76
2023/02/13 09:38:52;;;;;;;11.30;7.20;;;;;;;1.33;57.77;101259.70;105547;1258;60345;-76
2023/02/13 09:41:38;;;;;;;13.00;7.60;;;;;;;1.36;57.87;101256.84;105574;1261;67487;-76
2023/02/13 09:44:37;;;;;;;13.60;7.90;;;;;;;1.38;57.88;101253.83;105510;1258;61002;-75
2023/02/13 09:47:10;;;;;;;16.30;8.50;;;;;;;1.44;57.94;101247.93;105659;1254;65547;-75
2023/02/13 09:49:41;;;;;;;13.30;9.10;;;;;;;1.52;58.01;101248.06;105632;1260;60574;-76
2023/02/13 09:52:09;;;;;;;13.20;7.90;;;;;;;1.58;57.87;101242.00;105365;1256;60344;-75
2023/02/13 09:54:39;;;;;;;13.40;8.10;;;;;;;1.63;57.75;101233.67;105578;1260;66702;-74
2023/02/13 09:57:28;;;;;;;11.70;7.50;;;;;;;1.69;57.79;101231.77;105302;1255;60467;-76
2023/02/13 10:00:14;;;;;;;12.00;7.20;;;;;;;1.77;57.87;101228.93;105617;1257;65306;-76
2023/02/13 10:02:55;;;;;;;12.30;7.80;;;;;;;1.85;57.79;101225.23;105398;1261;60505;-76
2023/02/13 10:05:30;;;;;;;11.00;7.40;;;;;;;1.91;57.68;101219.14;105542;1257;60652;-77
2023/02/13 10:08:05;;;;;;;11.80;7.30;;;;;;;1.96;57.36;101216.54;105572;1260;66545;-74
2023/02/13 10:10:33;;;;;;;12.40;7.60;;;;;;;1.97;57.14;101214.45;105946;1254;60553;-75
2023/02/13 10:13:10;;;;;;;11.10;7.20;;;;;;;1.96;57.01;101209.95;106000;1257;65311;-76
2023/02/13 10:15:47;;;;;;;33.10;10.10;;;;;;;1.96;57.24;101204.22;105556;1260;60510;-73
2023/02/13 10:18:20;;;;;;;16.20;8.90;;;;;;;2.02;57.33;101200.91;105436;1254;60447;-75
2023/02/13 10:20:51;;;;;;;16.10;8.60;;;;;;;2.10;57.51;101200.66;105909;1260;66774;-73
2023/02/13 10:23:29;;;;;;;13.90;9.30;;;;;;;2.20;57.52;101199.48;106163;1255;60380;-79
2023/02/13 10:26:41;;;;;;;15.80;9.90;;;;;;;2.28;57.18;101196.95;106112;1260;64881;-76
2023/02/13 10:32:09;;;;;;;10.30;6.90;;;;;;;2.39;56.71;101189.98;106198;1255;60451;-76
2023/02/13 10:34:43;;;;;;;12.40;8.50;;;;;;;2.42;56.40;101189.73;106191;1257;75163;-77
2023/02/13 10:37:16;;;;;;;12.40;9.40;;;;;;;2.44;56.21;101187.75;105849;1257;60550;-77
2023/02/13 10:39:50;;;;;;;11.20;7.30;;;;;;;2.44;56.21;101185.83;105855;1254;64788;-74
2023/02/13 10:42:49;;;;;;;33.00;12.30;;;;;;;2.46;55.95;101181.08;105772;1259;60505;-79
2023/02/13 10:45:39;;;;;;;18.90;10.80;;;;;;;2.45;55.60;101179.92;105688;1263;60328;-77
2023/02/13 10:48:25;;;;;;;11.80;8.20;;;;;;;2.39;55.49;101173.67;105563;1257;65685;-76
2023/02/13 10:51:06;;;;;;;10.60;7.10;;;;;;;2.36;55.56;101174.30;106258;1258;60371;-76
2023/02/13 10:54:04;;;;;;;10.20;6.80;;;;;;;2.34;55.73;101172.64;105647;1257;65400;-77
2023/02/13 10:56:51;;;;;;;18.10;8.50;;;;;;;2.34;55.84;101173.13;105739;1254;60439;-76
2023/02/13 10:59:26;;;;;;;36.30;10.10;;;;;;;2.37;55.84;101170.06;106099;1256;60460;-77
2023/02/13 11:02:22;;;;;;;11.90;7.20;;;;;;;2.39;55.78;101174.88;105759;1260;66673;-73
2023/02/13 11:04:59;;;;;;;11.00;7.30;;;;;;;2.41;55.68;101173.77;105751;1257;60742;-74
2023/02/13 11:07:28;;;;;;;13.60;7.40;;;;;;;2.44;55.67;101170.05;106092;1260;65491;-78
2023/02/13 11:09:59;;;;;;;20.60;7.50;;;;;;;2.48;55.58;101170.59;105820;1254;60388;-71
2023/02/13 11:12:32;;;;;;;26.10;9.10;;;;;;;2.50;55.44;101163.22;105874;1255;60345;-73
2023/02/13 11:15:04;;;;;;;35.70;10.30;;;;;;;2.51;55.60;101162.82;105794;1255;66417;-73
2023/02/13 11:17:37;;;;;;;11.00;6.70;;;;;;;2.55;55.72;101162.52;105819;1256;60328;-75
2023/02/13 11:20:44;;;;;;;8.60;6.70;;;;;;;2.58;55.48;101159.10;105770;1258;64069;-74
2023/02/13 11:23:21;;;;;;;10.80;7.60;;;;;;;2.64;55.67;101154.75;105732;1270;60528;-73
2023/02/13 11:26:31;;;;;;;11.30;7.30;;;;;;;2.71;55.66;101150.85;106101;1254;60303;-75
2023/02/13 11:29:00;;;;;;;9.60;6.70;;;;;;;2.79;55.60;101144.48;105257;1254;65444;-74
2023/02/13 11:31:31;;;;;;;11.10;7.50;;;;;;;2.87;55.59;101135.52;105876;1257;60537;-73
2023/02/13 11:34:16;;;;;;;10.60;7.30;;;;;;;2.96;55.49;101131.00;105768;1254;65287;-74
2023/02/13 11:36:45;;;;;;;10.60;6.90;;;;;;;3.02;55.14;101126.10;105745;1260;60387;-74
2023/02/13 11:39:17;;;;;;;9.20;6.70;;;;;;;3.05;55.01;101125.46;105624;1260;60787;-75
2023/02/13 11:49:44;;;;;;;10.70;8.30;;;;;;;3.28;54.70;101115.41;102520;1289;609018;-72
2023/02/13 11:52:23;;;;;;;10.50;7.70;;;;;;;3.28;54.61;101119.21;104887;1266;59325;-71
2023/02/13 11:54:58;;;;;;;12.60;8.90;;;;;;;3.32;54.53;101111.09;105180;1266;59335;-75
2023/02/13 11:57:31;;;;;;;12.50;9.30;;;;;;;3.33;54.54;101105.08;104940;1266;65340;-73
2023/02/13 11:59:58;;;;;;;11.40;8.40;;;;;;;3.37;54.73;101103.55;105017;1269;60241;-75
2023/02/13 12:02:30;;;;;;;16.10;11.40;;;;;;;3.39;54.71;101096.02;104757;1271;294426;-76
2023/02/13 12:05:21;;;;;;;13.50;8.70;;;;;;;3.39;54.76;101093.75;105113;1267;59312;-73
2023/02/13 12:07:49;;;;;;;13.40;9.50;;;;;;;3.41;54.81;101090.33;105386;1256;59420;-73
2023/02/13 12:10:32;;;;;;;11.40;9.20;;;;;;;3.41;54.76;101088.42;105667;1256;65147;-74
2023/02/13 12:13:08;;;;;;;14.00;9.50;;;;;;;3.39;54.90;101088.52;105861;1256;59336;-73
2023/02/13 12:15:35;;;;;;;12.30;8.90;;;;;;;3.38;54.93;101096.23;106010;1257;65410;-74
2023/02/13 12:18:28;;;;;;;14.00;9.70;;;;;;;3.36;54.96;101095.05;105623;1259;59587;-80
2023/02/13 12:21:11;;;;;;;13.50;9.80;;;;;;;3.34;55.11;101095.65;105530;1256;59670;-73
2023/02/13 12:23:59;;;;;;;12.70;10.10;;;;;;;3.30;55.24;101089.05;105373;1256;65688;-72
2023/02/13 12:26:37;;;;;;;15.10;10.30;;;;;;;3.27;55.57;101089.84;105440;1259;59970;-72
2023/02/13 12:29:42;;;;;;;13.30;9.90;;;;;;;3.24;55.92;101092.04;105098;1257;63759;-71
2023/02/13 12:32:14;;;;;;;15.20;10.50;;;;;;;3.20;56.24;101095.67;105384;1261;59552;-71
2023/02/13 12:35:00;;;;;;;18.60;13.00;;;;;;;3.14;56.73;101097.66;105612;1259;59728;-71
2023/02/13 12:37:32;;;;;;;21.70;15.70;;;;;;;3.07;57.07;101096.66;105848;1265;65899;-73